createdAt,value
2018-08-31T00:01:42.670Z,20.39
2018-08-31T00:04:31.971Z,20.43
2018-08-31T00:07:12.656Z,20.44
2018-08-31T00:09:53.354Z,20.36
2018-08-31T00:12:36.659Z,20.35
2018-08-31T00:15:06.199Z,20.29
2018-08-31T00:17:35.344Z,20.29
2018-08-31T00:20:04.498Z,20.30
2018-08-31T00:22:33.340Z,20.30
2018-08-31T00:25:12.973Z,20.29
2018-08-31T00:27:52.802Z,20.26
2018-08-31T00:31:35.279Z,20.23
2018-08-31T00:34:14.742Z,20.21
2018-08-31T00:37:53.188Z,20.17
2018-08-31T00:43:38.842Z,20.21
2018-08-31T00:46:07.682Z,20.17
2018-08-31T00:48:36.631Z,20.20
2018-08-31T00:51:05.551Z,20.17
2018-08-31T00:53:34.484Z,20.16
2018-08-31T00:56:03.268Z,20.09
2018-08-31T00:58:32.128Z,20.06
2018-08-31T01:01:01.928Z,20.01
2018-08-31T01:03:30.866Z,19.99
2018-08-31T01:05:59.734Z,19.94
2018-08-31T01:08:28.692Z,19.90
2018-08-31T01:10:57.659Z,19.91
2018-08-31T01:13:26.599Z,19.96
2018-08-31T01:15:55.624Z,19.95
2018-08-31T01:18:24.544Z,19.95
2018-08-31T01:20:53.348Z,19.92
2018-08-31T01:23:22.196Z,19.88
2018-08-31T01:25:51.026Z,19.88
2018-08-31T01:28:19.779Z,19.86
2018-08-31T01:30:48.614Z,19.84
2018-08-31T01:33:17.488Z,19.84
2018-08-31T01:35:46.379Z,19.81
2018-08-31T01:38:15.268Z,19.83
2018-08-31T01:40:44.047Z,19.80
2018-08-31T01:43:13.549Z,19.79
2018-08-31T01:45:42.335Z,19.75
2018-08-31T01:48:11.135Z,19.72
2018-08-31T01:50:44.062Z,19.69
2018-08-31T01:53:13.019Z,19.65
2018-08-31T01:55:41.878Z,19.65
2018-08-31T01:58:10.650Z,19.57
2018-08-31T02:00:39.473Z,19.56
2018-08-31T02:03:08.297Z,19.48
2018-08-31T02:05:37.175Z,19.51
2018-08-31T02:08:06.514Z,19.50
2018-08-31T02:10:35.416Z,19.46
2018-08-31T02:13:04.262Z,19.40
2018-08-31T02:15:33.052Z,19.34
2018-08-31T02:18:01.960Z,19.31
2018-08-31T02:20:30.852Z,19.31
2018-08-31T02:22:59.639Z,19.29
2018-08-31T02:25:28.457Z,19.27
2018-08-31T02:27:57.370Z,19.30
2018-08-31T02:30:26.279Z,19.32
2018-08-31T02:32:55.121Z,19.34
2018-08-31T02:35:24.052Z,19.33
2018-08-31T02:37:52.870Z,19.36
2018-08-31T02:40:21.678Z,19.28
2018-08-31T02:42:50.507Z,19.29
2018-08-31T02:45:19.360Z,19.28
2018-08-31T02:47:48.406Z,19.25
2018-08-31T02:50:17.314Z,19.23
2018-08-31T02:52:46.149Z,19.22
2018-08-31T02:55:14.983Z,19.21
2018-08-31T02:57:43.851Z,19.17
2018-08-31T03:00:12.809Z,19.18
2018-08-31T03:02:41.626Z,19.21
2018-08-31T03:05:10.473Z,19.16
2018-08-31T03:07:39.293Z,19.14
2018-08-31T03:10:08.162Z,19.15
2018-08-31T03:12:37.062Z,19.15
2018-08-31T03:15:05.876Z,19.12
2018-08-31T03:17:34.659Z,19.11
2018-08-31T03:20:03.875Z,19.06
2018-08-31T03:22:32.688Z,19.04
2018-08-31T03:25:01.567Z,18.95
2018-08-31T03:27:30.484Z,18.91
2018-08-31T03:29:59.355Z,18.92
2018-08-31T03:32:28.172Z,18.90
2018-08-31T03:34:57.099Z,18.83
2018-08-31T03:37:26.007Z,18.77
2018-08-31T03:39:54.847Z,18.72
2018-08-31T03:42:23.623Z,18.70
2018-08-31T03:44:52.462Z,18.69
2018-08-31T03:47:21.399Z,18.69
2018-08-31T03:49:50.275Z,18.66
2018-08-31T03:52:19.171Z,18.64
2018-08-31T03:54:47.995Z,18.65
2018-08-31T03:57:16.900Z,18.67
2018-08-31T03:59:45.829Z,18.72
2018-08-31T04:02:14.719Z,18.70
2018-08-31T04:04:43.521Z,18.76
2018-08-31T04:07:12.440Z,18.89
2018-08-31T04:09:41.234Z,19.01
2018-08-31T04:12:10.130Z,19.17
2018-08-31T04:14:39.037Z,19.37
2018-08-31T04:17:08.217Z,19.63
2018-08-31T04:19:37.086Z,19.92
2018-08-31T04:22:05.955Z,20.24
2018-08-31T04:24:34.708Z,20.48
2018-08-31T04:27:03.640Z,20.73
2018-08-31T04:29:32.565Z,21.01
2018-08-31T04:32:01.475Z,21.44
2018-08-31T04:34:30.300Z,21.79
2018-08-31T04:36:59.308Z,22.19
2018-08-31T04:39:28.100Z,22.51
2018-08-31T04:41:56.948Z,22.77
2018-08-31T04:44:25.716Z,22.99
2018-08-31T04:46:54.628Z,23.27
2018-08-31T04:49:23.516Z,23.43
2018-08-31T04:51:52.363Z,23.05
2018-08-31T04:54:21.254Z,22.53
2018-08-31T04:56:50.111Z,22.36
2018-08-31T04:59:18.880Z,22.22
2018-08-31T05:01:47.731Z,22.15
2018-08-31T05:04:16.808Z,22.10
2018-08-31T05:06:45.803Z,22.06
2018-08-31T05:09:14.615Z,21.97
2018-08-31T05:11:43.848Z,21.87
2018-08-31T05:14:12.648Z,21.91
2018-08-31T05:16:41.593Z,21.75
2018-08-31T05:19:10.461Z,21.66
2018-08-31T05:21:39.457Z,21.62
2018-08-31T05:24:08.278Z,21.56
2018-08-31T05:26:37.192Z,21.58
2018-08-31T05:29:06.172Z,21.49
2018-08-31T05:31:34.955Z,21.49
2018-08-31T05:34:04.094Z,21.58
2018-08-31T05:36:33.008Z,21.59
2018-08-31T05:39:01.822Z,21.55
2018-08-31T05:41:30.592Z,21.57
2018-08-31T05:43:59.376Z,21.56
2018-08-31T05:46:28.430Z,21.47
2018-08-31T05:48:57.227Z,21.41
2018-08-31T05:51:26.035Z,21.42
2018-08-31T05:53:54.935Z,21.46
2018-08-31T05:56:23.887Z,21.39
2018-08-31T05:58:52.626Z,21.37
2018-08-31T06:01:21.610Z,21.40
2018-08-31T06:03:50.490Z,21.48
2018-08-31T06:06:19.400Z,21.46
2018-08-31T06:08:48.287Z,21.57
2018-08-31T06:11:17.118Z,21.57
2018-08-31T06:13:45.949Z,21.69
2018-08-31T06:16:14.792Z,21.73
2018-08-31T06:18:43.645Z,21.83
2018-08-31T06:21:12.823Z,21.91
2018-08-31T06:23:41.698Z,22.00
2018-08-31T06:26:10.545Z,22.07
2018-08-31T06:28:39.372Z,22.09
2018-08-31T06:31:08.221Z,22.13
2018-08-31T06:33:37.037Z,22.14
2018-08-31T06:36:05.876Z,22.24
2018-08-31T06:38:35.234Z,22.26
2018-08-31T06:41:04.030Z,22.30
2018-08-31T06:43:32.791Z,22.38
2018-08-31T06:46:01.570Z,22.48
2018-08-31T06:48:30.355Z,22.65
2018-08-31T06:50:59.286Z,22.78
2018-08-31T06:53:28.114Z,22.76
2018-08-31T06:55:57.071Z,22.71
2018-08-31T06:58:25.880Z,22.80
2018-08-31T07:00:54.695Z,22.91
2018-08-31T07:03:24.510Z,23.08
2018-08-31T07:05:53.324Z,23.21
2018-08-31T07:08:22.168Z,23.31
2018-08-31T07:10:50.974Z,23.36
2018-08-31T07:13:19.768Z,23.43
2018-08-31T07:15:48.594Z,23.50
2018-08-31T07:18:17.411Z,23.58
2018-08-31T07:20:46.262Z,23.71
2018-08-31T07:23:15.083Z,23.80
2018-08-31T07:25:43.902Z,23.91
2018-08-31T07:28:12.709Z,23.91
2018-08-31T07:30:41.554Z,23.91
2018-08-31T07:33:10.340Z,23.97
2018-08-31T07:35:39.463Z,24.07
2018-08-31T07:38:08.444Z,24.07
2018-08-31T07:40:37.318Z,24.13
2018-08-31T07:43:06.198Z,24.24
2018-08-31T07:45:35.063Z,24.25
2018-08-31T07:48:04.383Z,24.22
2018-08-31T07:50:33.268Z,24.41
2018-08-31T07:53:02.063Z,24.54
2018-08-31T07:55:30.885Z,24.56
2018-08-31T07:57:59.836Z,24.60
2018-08-31T08:00:28.637Z,24.64
2018-08-31T08:02:57.426Z,24.69
2018-08-31T08:05:26.282Z,24.75
2018-08-31T08:07:59.087Z,24.90
2018-08-31T08:10:27.997Z,24.97
2018-08-31T08:12:56.865Z,24.97
2018-08-31T08:15:25.970Z,24.99
2018-08-31T08:17:54.836Z,25.02
2018-08-31T08:20:39.149Z,25.05
2018-08-31T08:23:08.042Z,25.03
2018-08-31T08:25:36.924Z,25.11
2018-08-31T08:28:05.813Z,25.24
2018-08-31T08:30:34.761Z,25.34
2018-08-31T08:33:04.377Z,25.47
2018-08-31T08:35:33.467Z,25.55
2018-08-31T08:38:02.338Z,25.49
2018-08-31T08:40:31.343Z,25.53
2018-08-31T08:43:00.301Z,25.62
2018-08-31T08:45:29.286Z,25.66
2018-08-31T08:47:58.235Z,25.72
2018-08-31T08:50:27.233Z,25.72
2018-08-31T08:52:56.100Z,25.64
2018-08-31T08:55:25.004Z,25.78
2018-08-31T08:57:53.855Z,25.90
2018-08-31T09:00:22.710Z,26.00
2018-08-31T09:02:51.782Z,26.13
2018-08-31T09:05:20.635Z,26.25
2018-08-31T09:07:49.570Z,26.36
2018-08-31T09:10:18.461Z,26.28
2018-08-31T09:12:47.278Z,26.33
2018-08-31T09:15:16.092Z,26.42
2018-08-31T09:17:45.062Z,26.58
2018-08-31T09:20:14.023Z,26.65
2018-08-31T09:22:43.085Z,26.70
2018-08-31T09:25:11.876Z,26.74
2018-08-31T09:27:40.868Z,26.75
2018-08-31T09:30:15.419Z,26.79
2018-08-31T09:32:44.367Z,26.86
2018-08-31T09:35:13.235Z,26.86
2018-08-31T09:37:42.011Z,26.97
2018-08-31T09:40:10.856Z,26.98
2018-08-31T09:42:39.789Z,27.06
2018-08-31T09:45:08.647Z,27.11
2018-08-31T09:47:37.538Z,27.14
2018-08-31T09:50:06.394Z,27.10
2018-08-31T09:52:35.237Z,27.20
2018-08-31T09:55:04.958Z,27.27
2018-08-31T09:57:34.062Z,27.29
2018-08-31T10:00:04.229Z,27.35
2018-08-31T10:02:37.974Z,27.50
2018-08-31T10:05:08.511Z,27.62
2018-08-31T10:07:37.289Z,27.73
2018-08-31T10:10:06.311Z,27.75
2018-08-31T10:12:35.158Z,27.85
2018-08-31T10:15:04.048Z,28.00
2018-08-31T10:17:32.949Z,27.96
2018-08-31T10:20:01.756Z,27.94
2018-08-31T10:22:30.681Z,27.98
2018-08-31T10:24:59.575Z,28.05
2018-08-31T10:27:28.530Z,28.04
2018-08-31T10:29:57.506Z,28.14
2018-08-31T10:32:26.439Z,28.30
2018-08-31T10:34:55.303Z,28.32
2018-08-31T10:37:24.477Z,28.37
2018-08-31T10:39:53.507Z,28.32
2018-08-31T10:42:22.326Z,28.39
2018-08-31T10:44:51.234Z,28.49
2018-08-31T10:47:20.166Z,28.54
2018-08-31T10:49:48.997Z,28.55
2018-08-31T10:52:18.041Z,28.39
2018-08-31T10:54:46.947Z,28.40
2018-08-31T10:57:15.850Z,28.48
2018-08-31T10:59:45.453Z,28.49
2018-08-31T11:02:14.375Z,28.50
2018-08-31T11:04:43.289Z,28.47
2018-08-31T11:07:12.063Z,28.40
2018-08-31T11:09:40.993Z,28.48
2018-08-31T11:12:09.893Z,28.67
2018-08-31T11:14:38.898Z,28.85
2018-08-31T11:17:07.839Z,28.97
2018-08-31T11:19:36.943Z,28.94
2018-08-31T11:22:05.791Z,28.91
2018-08-31T11:24:34.726Z,28.88
2018-08-31T11:27:03.590Z,28.95
2018-08-31T11:29:32.465Z,29.04
2018-08-31T11:32:01.306Z,28.97
2018-08-31T11:34:30.245Z,29.04
2018-08-31T11:36:59.101Z,29.08
2018-08-31T11:39:28.079Z,29.14
2018-08-31T11:41:56.922Z,29.24
2018-08-31T11:44:25.824Z,29.28
2018-08-31T11:46:54.987Z,29.29
2018-08-31T11:49:23.877Z,29.18
2018-08-31T11:51:52.740Z,29.19
2018-08-31T11:54:21.627Z,29.19
2018-08-31T11:56:50.518Z,29.11
2018-08-31T11:59:19.386Z,29.09
2018-08-31T12:01:48.276Z,29.11
2018-08-31T12:04:17.136Z,29.08
2018-08-31T12:06:46.185Z,29.21
2018-08-31T12:09:14.994Z,29.16
2018-08-31T12:11:43.927Z,29.08
2018-08-31T12:14:12.750Z,29.08
2018-08-31T12:16:41.642Z,29.16
2018-08-31T12:19:10.541Z,29.13
2018-08-31T12:21:39.658Z,29.20
2018-08-31T12:24:08.673Z,29.16
2018-08-31T12:26:38.571Z,29.14
2018-08-31T12:29:07.431Z,29.15
2018-08-31T12:31:36.311Z,29.24
2018-08-31T12:34:05.579Z,29.31
2018-08-31T12:36:34.609Z,29.40
2018-08-31T12:39:04.029Z,29.48
2018-08-31T12:41:33.280Z,29.52
2018-08-31T12:44:02.222Z,29.57
2018-08-31T12:46:31.242Z,29.59
2018-08-31T12:49:00.311Z,29.63
2018-08-31T12:51:30.034Z,29.58
2018-08-31T12:53:59.016Z,29.57
2018-08-31T12:56:27.914Z,29.56
2018-08-31T12:58:56.914Z,29.50
2018-08-31T13:01:25.814Z,29.50
2018-08-31T13:03:54.658Z,29.56
2018-08-31T13:06:23.704Z,29.63
2018-08-31T13:08:52.610Z,29.66
2018-08-31T13:11:21.509Z,29.69
2018-08-31T13:13:50.312Z,29.72
2018-08-31T13:16:19.186Z,29.80
2018-08-31T13:18:48.116Z,29.85
2018-08-31T13:21:17.042Z,29.89
2018-08-31T13:23:45.879Z,29.91
2018-08-31T13:26:14.855Z,29.88
2018-08-31T13:28:43.795Z,29.87
2018-08-31T13:31:12.671Z,29.75
2018-08-31T13:33:41.763Z,29.70
2018-08-31T13:36:10.609Z,29.75
2018-08-31T13:38:39.472Z,29.78
2018-08-31T13:41:08.427Z,29.83
2018-08-31T13:43:37.367Z,29.89
2018-08-31T13:46:06.258Z,29.84
2018-08-31T13:48:35.053Z,29.84
2018-08-31T13:51:03.814Z,29.93
2018-08-31T13:53:33.029Z,29.92
2018-08-31T13:56:01.888Z,29.90
2018-08-31T13:58:30.708Z,29.82
2018-08-31T14:00:59.592Z,29.80
2018-08-31T14:03:28.408Z,29.82
2018-08-31T14:05:57.402Z,29.83
2018-08-31T14:08:26.323Z,29.82
2018-08-31T14:10:55.241Z,29.85
2018-08-31T14:13:24.157Z,29.87
2018-08-31T14:15:53.129Z,29.95
2018-08-31T14:18:22.015Z,29.98
2018-08-31T14:20:50.892Z,29.87
2018-08-31T14:23:19.735Z,29.89
2018-08-31T14:25:48.522Z,29.90
2018-08-31T14:28:17.460Z,30.00
2018-08-31T14:30:46.448Z,29.94
2018-08-31T14:33:15.552Z,30.04
2018-08-31T14:35:44.401Z,30.16
2018-08-31T14:38:13.231Z,30.15
2018-08-31T14:40:42.456Z,30.15
2018-08-31T14:43:11.237Z,30.20
2018-08-31T14:45:40.371Z,30.18
2018-08-31T14:48:09.234Z,30.09
2018-08-31T14:50:38.014Z,30.03
2018-08-31T14:53:06.809Z,30.10
2018-08-31T14:55:35.712Z,30.03
2018-08-31T14:58:04.750Z,29.82
2018-08-31T15:00:33.683Z,29.71
2018-08-31T15:03:02.617Z,29.71
2018-08-31T15:05:31.762Z,29.80
2018-08-31T15:08:00.824Z,29.83
2018-08-31T15:10:29.633Z,29.76
2018-08-31T15:12:58.704Z,29.62
2018-08-31T15:15:27.702Z,29.56
2018-08-31T15:17:56.529Z,29.39
2018-08-31T15:20:25.434Z,29.23
2018-08-31T15:22:54.504Z,29.10
2018-08-31T15:25:23.367Z,29.01
2018-08-31T15:27:52.362Z,29.00
2018-08-31T15:30:21.279Z,29.06
2018-08-31T15:32:50.076Z,29.05
2018-08-31T15:35:19.562Z,28.98
2018-08-31T15:37:48.448Z,28.88
2018-08-31T15:40:17.403Z,28.78
2018-08-31T15:42:46.513Z,28.76
2018-08-31T15:45:15.631Z,28.70
2018-08-31T15:47:44.481Z,28.64
2018-08-31T15:50:13.367Z,28.58
2018-08-31T15:52:42.355Z,28.61
2018-08-31T15:55:11.256Z,28.58
2018-08-31T15:57:40.123Z,28.54
2018-08-31T16:00:10.364Z,28.53
2018-08-31T16:02:39.813Z,28.42
2018-08-31T16:05:08.726Z,28.38
2018-08-31T16:07:37.569Z,28.26
2018-08-31T16:10:07.338Z,28.17
2018-08-31T16:12:36.165Z,28.14
2018-08-31T16:15:05.070Z,28.05
2018-08-31T16:17:34.134Z,27.95
2018-08-31T16:20:03.024Z,27.89
2018-08-31T16:22:31.955Z,27.81
2018-08-31T16:25:00.777Z,27.71
2018-08-31T16:27:29.662Z,27.63
2018-08-31T16:29:58.506Z,27.53
2018-08-31T16:32:27.403Z,27.45
2018-08-31T16:34:56.253Z,27.34
2018-08-31T16:37:25.148Z,27.26
2018-08-31T16:39:53.997Z,27.20
2018-08-31T16:42:22.862Z,27.08
2018-08-31T16:44:51.658Z,27.05
2018-08-31T16:47:20.683Z,27.04
2018-08-31T16:49:49.706Z,27.05
2018-08-31T16:52:18.580Z,27.07
2018-08-31T16:54:47.502Z,27.05
2018-08-31T16:57:16.384Z,27.05
2018-08-31T16:59:45.300Z,27.02
2018-08-31T17:02:14.070Z,26.96
2018-08-31T17:04:42.969Z,26.88
2018-08-31T17:07:11.945Z,26.80
2018-08-31T17:09:40.799Z,26.74
2018-08-31T17:12:09.702Z,26.70
2018-08-31T17:14:38.521Z,26.70
2018-08-31T17:17:07.445Z,26.65
2018-08-31T17:19:36.573Z,26.63
2018-08-31T17:22:05.844Z,26.58
2018-08-31T17:24:34.838Z,26.54
2018-08-31T17:27:09.025Z,26.46
2018-08-31T17:29:43.046Z,26.41
2018-08-31T17:32:17.619Z,26.42
2018-08-31T17:34:51.650Z,26.37
2018-08-31T17:37:26.119Z,26.37
2018-08-31T17:39:55.503Z,26.30
2018-08-31T17:42:24.590Z,26.28
2018-08-31T17:44:53.579Z,26.25
2018-08-31T17:47:22.442Z,26.19
2018-08-31T17:49:51.370Z,26.15
2018-08-31T17:52:20.213Z,26.15
2018-08-31T17:54:49.137Z,26.08
2018-08-31T17:57:18.142Z,26.07
2018-08-31T17:59:47.117Z,26.03
2018-08-31T18:02:15.895Z,25.96
2018-08-31T18:04:45.157Z,25.96
2018-08-31T18:07:14.230Z,25.92
2018-08-31T18:09:43.044Z,25.88
2018-08-31T18:12:12.066Z,25.88
2018-08-31T18:14:40.979Z,25.82
2018-08-31T18:17:09.954Z,25.78
2018-08-31T18:19:38.889Z,25.74
2018-08-31T18:22:07.687Z,25.73
2018-08-31T18:24:36.492Z,25.68
2018-08-31T18:27:06.011Z,25.62
2018-08-31T18:29:34.931Z,25.58
2018-08-31T18:32:04.092Z,25.49
2018-08-31T18:34:33.032Z,25.46
2018-08-31T18:37:02.355Z,25.40
2018-08-31T18:39:31.770Z,25.36
2018-08-31T18:42:01.107Z,25.27
2018-08-31T18:44:29.976Z,25.24
2018-08-31T18:46:58.929Z,25.21
2018-08-31T18:49:27.827Z,25.14
2018-08-31T18:51:56.698Z,25.11
2018-08-31T18:54:25.575Z,25.07
2018-08-31T18:56:54.512Z,25.03
2018-08-31T18:59:23.394Z,24.98
2018-08-31T19:01:52.235Z,24.98
2018-08-31T19:04:21.099Z,24.90
2018-08-31T19:06:50.311Z,24.88
2018-08-31T19:09:19.297Z,24.89
2018-08-31T19:11:48.131Z,24.90
2018-08-31T19:14:17.013Z,24.87
2018-08-31T19:16:45.866Z,24.84
2018-08-31T19:19:14.690Z,24.76
2018-08-31T19:21:43.549Z,24.70
2018-08-31T19:24:12.391Z,24.67
2018-08-31T19:26:41.233Z,24.58
2018-08-31T19:29:10.256Z,24.52
2018-08-31T19:31:39.087Z,24.48
2018-08-31T19:34:08.009Z,24.47
2018-08-31T19:36:36.850Z,24.46
2018-08-31T19:39:08.179Z,24.52
2018-08-31T19:41:37.033Z,24.49
2018-08-31T19:44:05.923Z,24.54
2018-08-31T19:46:34.818Z,24.56
2018-08-31T19:49:04.090Z,24.58
2018-08-31T19:51:32.919Z,24.58
2018-08-31T19:54:01.849Z,24.62
2018-08-31T19:56:30.994Z,24.60
2018-08-31T19:58:59.921Z,24.57
2018-08-31T20:01:28.805Z,24.59
2018-08-31T20:03:57.690Z,24.61
2018-08-31T20:06:26.620Z,24.65
2018-08-31T20:08:55.572Z,24.63
2018-08-31T20:11:24.418Z,24.63
2018-08-31T20:13:53.284Z,24.64
2018-08-31T20:16:22.648Z,24.63
2018-08-31T20:18:51.609Z,24.55
2018-08-31T20:21:20.555Z,24.53
2018-08-31T20:23:49.438Z,24.50
2018-08-31T20:26:18.403Z,24.46
2018-08-31T20:28:47.182Z,24.42
2018-08-31T20:31:16.014Z,24.46
2018-08-31T20:33:45.058Z,24.47
2018-08-31T20:36:13.946Z,24.47
2018-08-31T20:38:42.859Z,24.41
2018-08-31T20:41:11.900Z,24.41
2018-08-31T20:43:41.672Z,24.38
2018-08-31T20:46:10.570Z,24.41
2018-08-31T20:48:39.335Z,24.34
2018-08-31T20:51:08.200Z,24.28
2018-08-31T20:53:37.062Z,24.25
2018-08-31T20:56:06.002Z,24.17
2018-08-31T20:58:34.931Z,24.13
2018-08-31T21:01:03.852Z,24.08
2018-08-31T21:03:32.797Z,24.06
2018-08-31T21:06:01.856Z,24.00
2018-08-31T21:08:30.813Z,23.97
2018-08-31T21:10:59.661Z,23.91
2018-08-31T21:13:28.538Z,23.88
2018-08-31T21:15:57.428Z,23.80
2018-08-31T21:18:26.297Z,23.77
2018-08-31T21:20:55.140Z,23.78
2018-08-31T21:23:24.066Z,23.75
2018-08-31T21:25:52.901Z,23.66
2018-08-31T21:28:21.745Z,23.65
2018-08-31T21:30:50.614Z,23.56
2018-08-31T21:33:19.409Z,23.54
2018-08-31T21:35:48.230Z,23.49
2018-08-31T21:38:17.147Z,23.45
2018-08-31T21:40:46.042Z,23.39
2018-08-31T21:43:14.869Z,23.34
2018-08-31T21:45:43.753Z,23.31
2018-08-31T21:48:12.710Z,23.32
2018-08-31T21:50:41.705Z,23.29
2018-08-31T21:53:10.630Z,23.26
2018-08-31T21:55:39.456Z,23.25
2018-08-31T21:58:08.307Z,23.24
2018-08-31T22:00:43.887Z,23.14
2018-08-31T22:03:13.393Z,23.11
2018-08-31T22:05:44.426Z,23.01
2018-08-31T22:08:13.288Z,22.97
2018-08-31T22:10:42.417Z,22.93
2018-08-31T22:13:11.440Z,22.82
2018-08-31T22:15:40.338Z,22.77
2018-08-31T22:18:09.248Z,22.62
2018-08-31T22:20:38.121Z,22.57
2018-08-31T22:23:07.116Z,22.46
2018-08-31T22:25:36.014Z,22.41
2018-08-31T22:28:04.960Z,22.33
2018-08-31T22:30:33.851Z,22.27
2018-08-31T22:33:02.691Z,22.20
2018-08-31T22:35:31.513Z,22.17
2018-08-31T22:38:00.416Z,22.11
2018-08-31T22:40:29.239Z,22.07
2018-08-31T22:42:58.155Z,22.05
2018-08-31T22:45:27.024Z,22.05
2018-08-31T22:47:55.814Z,22.06
2018-08-31T22:50:24.585Z,21.94
2018-08-31T22:52:53.432Z,21.92
2018-08-31T22:55:22.269Z,21.88
2018-08-31T22:57:51.177Z,21.85
2018-08-31T23:00:19.983Z,21.81
2018-08-31T23:02:48.806Z,21.77
2018-08-31T23:05:17.634Z,21.71
2018-08-31T23:07:51.673Z,21.67
2018-08-31T23:10:20.936Z,21.66
2018-08-31T23:12:49.979Z,21.66
2018-08-31T23:15:18.974Z,21.61
2018-08-31T23:17:50.883Z,21.58
2018-08-31T23:20:21.191Z,21.58
2018-08-31T23:22:50.143Z,21.52
2018-08-31T23:25:24.203Z,21.44
2018-08-31T23:27:53.028Z,21.27
2018-08-31T23:30:21.935Z,21.21
2018-08-31T23:32:50.893Z,21.22
2018-08-31T23:35:19.687Z,21.19
2018-08-31T23:37:48.537Z,21.16
2018-08-31T23:40:17.392Z,21.15
2018-08-31T23:42:46.325Z,21.17
2018-08-31T23:45:15.334Z,21.17
2018-08-31T23:47:44.206Z,21.11
2018-08-31T23:50:13.189Z,21.08
2018-08-31T23:52:43.797Z,21.12
2018-08-31T23:55:12.638Z,21.12
2018-08-31T23:57:41.627Z,21.10
